Galena, Nevada Weather observations

Data are for 10 minute period ending at time listed.
 Day   Time    Ave.   Ave.  Ave.  Vector   Max.   Total    Solar   
  of    of     Air    Rel.  Wind   Wind    Wind  Precip.   Rad.    
Year   Day     Temp.  Hum.  Speed  Dir.    Gust                    
2016   (PST)    F      %     mph   deg.    mph     in.     W/m2    
------------------------------------------------------------------- 
  40    7:00   31.0    86    2.0   233      6.0   11.13       0  
  40    8:00   35.0    77    2.0   308      3.0   11.13      67  
  40    9:00   40.0    67    2.0   151      4.0   11.13     257  
  40   10:00   43.0    64    4.0   164      6.0   11.13     422  
  40   11:00   46.0    57    4.0   155      7.0   11.13     555  
  40   12:00   51.0    50    3.0   132      8.0   11.13     635  
  40   13:00   52.0    49    4.0   124      9.0   11.13     652  
  40   14:00   54.0    48    4.0   152      9.0   11.13     569  
  40   15:00   54.0    48    4.0   148      7.0   11.13     445  
  40   16:00   55.0    46    4.0   162      7.0   11.13     315  
  40   17:00   48.0    62    2.0   126      6.0   11.13      93  
  40   18:00   44.0    67    0.0   237      3.0   11.13      19  
  40   19:00   39.0    65    2.0   280      6.0   11.13       0  
  40   20:00   39.0    63    0.0     8      3.0   11.13       0  
  40   21:00   38.0    62    1.0   320      4.0   11.13       0  
  40   22:00   37.0    64    5.0   328      6.0   11.13       0  
  40   23:00   39.0    55    2.0   260      4.0   11.13       0  
  41    0:00   41.0    49    3.0   245      5.0   11.13       0  
  41    1:00   41.0    56    1.0   231      5.0   11.13       0  
  41    2:00   41.0    60    1.0   160      7.0   11.13       0  
  41    3:00   42.0    57    5.0   218      9.0   11.13       0  
  41    4:00   38.0    64    4.0   316     13.0   11.13       0  
  41    5:00   40.0    40    4.0   216      7.0   11.13       0  
  41    6:00   40.0    39    4.0   258     10.0   11.13       0  

Return to Galena, Nevada graphs page.


Western Regional Climate Center,wrcc@dri.edu